createdAt,value
2018-03-26T00:00:43.779Z,38.83
2018-03-26T00:03:11.136Z,41.67
2018-03-26T00:05:37.718Z,43.90
2018-03-26T00:08:04.812Z,48.03
2018-03-26T00:10:31.042Z,44.87
2018-03-26T00:12:57.319Z,42.30
2018-03-26T00:15:23.526Z,38.90
2018-03-26T00:17:49.725Z,45.60
2018-03-26T00:20:16.567Z,41.07
2018-03-26T00:22:43.149Z,38.47
2018-03-26T00:25:09.390Z,43.77
2018-03-26T00:27:35.617Z,39.83
2018-03-26T00:30:01.897Z,41.77
2018-03-26T00:32:28.106Z,47.93
2018-03-26T00:34:55.521Z,42.60
2018-03-26T00:37:22.125Z,46.63
2018-03-26T00:39:48.360Z,39.33
2018-03-26T00:42:14.575Z,44.40
2018-03-26T00:44:41.561Z,40.50
2018-03-26T00:47:08.125Z,36.80
2018-03-26T00:49:36.109Z,39.00
2018-03-26T00:52:03.683Z,41.30
2018-03-26T00:54:30.698Z,45.00
2018-03-26T00:56:57.198Z,40.90
2018-03-26T00:59:23.768Z,41.87
2018-03-26T01:01:51.198Z,39.63
2018-03-26T01:04:17.529Z,38.33
2018-03-26T01:06:43.730Z,38.57
2018-03-26T01:09:10.408Z,39.60
2018-03-26T01:11:37.066Z,37.00
2018-03-26T01:14:04.265Z,44.10
2018-03-26T01:16:30.870Z,37.70
2018-03-26T01:18:57.794Z,43.17
2018-03-26T01:21:24.046Z,41.67
2018-03-26T01:23:50.707Z,38.87
2018-03-26T01:26:17.266Z,48.57
2018-03-26T01:28:43.854Z,57.53
2018-03-26T01:31:10.463Z,48.17
2018-03-26T01:33:37.679Z,45.40
2018-03-26T01:36:05.406Z,47.13
2018-03-26T01:38:32.437Z,48.83
2018-03-26T01:40:58.979Z,53.17
2018-03-26T01:43:26.499Z,43.23
2018-03-26T01:45:52.708Z,44.90
2018-03-26T01:48:18.959Z,46.13
2018-03-26T01:50:45.201Z,45.23
2018-03-26T01:53:11.460Z,41.77
2018-03-26T01:55:37.734Z,44.53
2018-03-26T01:58:04.371Z,46.93
2018-03-26T02:00:30.679Z,44.90
2018-03-26T02:02:57.695Z,41.67
2018-03-26T02:05:23.890Z,44.17
2018-03-26T02:07:51.210Z,45.10
2018-03-26T02:10:18.186Z,44.60
2018-03-26T02:12:45.130Z,47.47
2018-03-26T02:15:11.342Z,42.67
2018-03-26T02:17:37.926Z,44.07
2018-03-26T02:20:04.180Z,49.83
2018-03-26T02:22:31.141Z,43.97
2018-03-26T02:24:58.115Z,44.13
2018-03-26T02:27:24.330Z,42.47
2018-03-26T02:29:50.605Z,45.50
2018-03-26T02:32:17.318Z,42.77
2018-03-26T02:34:43.558Z,42.90
2018-03-26T02:37:10.138Z,48.73
2018-03-26T02:39:37.107Z,46.97
2018-03-26T02:42:03.404Z,42.97
2018-03-26T02:44:29.641Z,49.43
2018-03-26T02:46:56.643Z,53.77
2018-03-26T02:49:23.250Z,45.70
2018-03-26T02:51:49.473Z,45.33
2018-03-26T02:54:16.974Z,45.53
2018-03-26T02:56:43.150Z,49.00
2018-03-26T02:59:10.082Z,44.83
2018-03-26T03:01:36.272Z,45.00
2018-03-26T03:04:04.491Z,45.23
2018-03-26T03:06:30.767Z,46.77
2018-03-26T03:08:56.957Z,48.00
2018-03-26T03:11:24.207Z,44.80
2018-03-26T03:13:51.295Z,47.77
2018-03-26T03:16:18.314Z,48.00
2018-03-26T03:18:45.265Z,46.47
2018-03-26T03:21:12.223Z,47.70
2018-03-26T03:23:38.438Z,43.07
2018-03-26T03:26:05.071Z,44.77
2018-03-26T03:28:32.057Z,47.63
2018-03-26T03:30:58.652Z,49.77
2018-03-26T03:33:25.254Z,46.20
2018-03-26T03:35:51.589Z,47.83
2018-03-26T03:38:18.629Z,50.40
2018-03-26T03:40:44.812Z,50.47
2018-03-26T03:43:11.033Z,46.40
2018-03-26T03:45:38.031Z,53.17
2018-03-26T03:48:04.256Z,46.83
2018-03-26T03:50:30.503Z,50.43
2018-03-26T03:52:56.705Z,45.53
2018-03-26T03:55:22.900Z,42.73
2018-03-26T03:57:49.887Z,46.23
2018-03-26T04:00:17.099Z,51.53
2018-03-26T04:02:44.504Z,44.80
2018-03-26T04:05:11.307Z,53.07
2018-03-26T04:07:37.496Z,47.70
2018-03-26T04:10:03.739Z,44.13
2018-03-26T04:12:30.716Z,50.10
2018-03-26T04:14:56.879Z,56.90
2018-03-26T04:17:23.450Z,48.17
2018-03-26T04:19:50.005Z,51.17
2018-03-26T04:22:17.705Z,51.57
2018-03-26T04:24:43.891Z,54.10
2018-03-26T04:27:10.816Z,48.90
2018-03-26T04:29:37.022Z,44.40
2018-03-26T04:32:03.279Z,44.83
2018-03-26T04:34:29.490Z,57.80
2018-03-26T04:36:55.739Z,49.70
2018-03-26T04:39:21.987Z,57.57
2018-03-26T04:41:49.734Z,55.20
2018-03-26T04:44:16.950Z,52.87
2018-03-26T04:46:43.186Z,58.10
2018-03-26T04:49:11.838Z,52.60
2018-03-26T04:51:38.830Z,55.53
2018-03-26T04:54:05.093Z,49.67
2018-03-26T04:56:32.726Z,55.50
2018-03-26T04:58:58.929Z,52.80
2018-03-26T05:01:25.504Z,57.33
2018-03-26T05:03:52.480Z,50.03
2018-03-26T05:06:19.540Z,48.17
2018-03-26T05:08:45.750Z,47.50
2018-03-26T05:11:13.283Z,56.17
2018-03-26T05:13:39.530Z,53.80
2018-03-26T05:16:07.202Z,50.67
2018-03-26T05:18:34.139Z,49.67
2018-03-26T05:21:00.745Z,58.00
2018-03-26T05:23:27.352Z,49.17
2018-03-26T05:25:56.087Z,54.13
2018-03-26T05:28:22.261Z,56.10
2018-03-26T05:30:49.359Z,48.20
2018-03-26T05:33:15.568Z,49.93
2018-03-26T05:35:42.594Z,56.30
2018-03-26T05:38:08.874Z,53.23
2018-03-26T05:40:36.223Z,52.03
2018-03-26T05:43:02.448Z,52.40
2018-03-26T05:45:29.652Z,56.97
2018-03-26T05:47:56.709Z,57.73
2018-03-26T05:50:22.923Z,52.63
2018-03-26T05:52:49.279Z,54.57
2018-03-26T05:55:15.490Z,46.50
2018-03-26T05:57:41.741Z,54.73
2018-03-26T06:00:08.715Z,50.40
2018-03-26T06:02:35.926Z,51.83
2018-03-26T06:05:02.926Z,48.73
2018-03-26T06:07:30.654Z,52.70
2018-03-26T06:09:57.132Z,51.53
2018-03-26T06:12:23.730Z,47.30
2018-03-26T06:14:49.966Z,46.97
2018-03-26T06:17:16.298Z,50.80
2018-03-26T06:19:42.560Z,45.33
2018-03-26T06:22:09.875Z,46.70
2018-03-26T06:24:36.125Z,43.80
2018-03-26T06:27:03.697Z,42.67
2018-03-26T06:29:30.397Z,45.87
2018-03-26T06:31:57.398Z,49.60
2018-03-26T06:34:24.872Z,41.87
2018-03-26T06:39:50.519Z,53.03
2018-03-26T06:42:16.840Z,44.93
2018-03-26T06:44:43.791Z,43.07
2018-03-26T06:47:10.056Z,51.03
2018-03-26T06:49:36.394Z,47.43
2018-03-26T06:52:02.818Z,49.80
2018-03-26T06:54:30.841Z,48.20
2018-03-26T06:57:00.544Z,49.83
2018-03-26T06:59:27.660Z,48.17
2018-03-26T07:01:53.928Z,46.33
2018-03-26T07:04:20.115Z,48.17
2018-03-26T07:06:46.807Z,49.17
2018-03-26T07:09:14.590Z,50.83
2018-03-26T07:11:41.907Z,55.33
2018-03-26T07:14:09.629Z,50.40
2018-03-26T07:16:36.996Z,46.87
2018-03-26T07:19:03.330Z,53.87
2018-03-26T07:21:29.576Z,52.70
2018-03-26T07:23:57.174Z,62.10
2018-03-26T07:26:24.502Z,50.63
2018-03-26T07:28:52.422Z,52.40
2018-03-26T07:31:19.645Z,64.47
2018-03-26T07:33:47.209Z,57.87
2018-03-26T07:36:13.911Z,56.73
2018-03-26T07:38:40.518Z,61.73
2018-03-26T07:41:07.332Z,56.07
2018-03-26T07:43:33.565Z,60.43
2018-03-26T07:45:59.777Z,56.73
2018-03-26T07:48:27.617Z,53.83
2018-03-26T07:50:56.124Z,63.27
2018-03-26T07:53:23.724Z,58.43
2018-03-26T07:55:50.855Z,60.70
2018-03-26T07:58:17.872Z,58.47
2018-03-26T08:00:44.791Z,56.30
2018-03-26T08:03:11.939Z,58.63
2018-03-26T08:05:38.688Z,65.80
2018-03-26T08:08:05.695Z,56.00
2018-03-26T08:10:32.564Z,58.47
2018-03-26T08:13:00.754Z,57.33
2018-03-26T08:15:28.124Z,57.20
2018-03-26T08:17:55.706Z,57.53
2018-03-26T08:20:22.038Z,57.90
2018-03-26T08:22:49.954Z,65.23
2018-03-26T08:25:16.969Z,59.23
2018-03-26T08:27:43.198Z,62.60
2018-03-26T08:30:11.202Z,56.40
2018-03-26T08:32:38.764Z,57.90
2018-03-26T08:35:06.818Z,58.40
2018-03-26T08:37:33.009Z,52.27
2018-03-26T08:39:59.275Z,58.90
2018-03-26T08:42:26.297Z,56.93
2018-03-26T08:44:53.230Z,58.83
2018-03-26T08:47:20.566Z,56.50
2018-03-26T08:49:47.156Z,58.13
2018-03-26T08:52:13.805Z,60.90
2018-03-26T08:54:40.064Z,61.50
2018-03-26T08:57:06.288Z,62.07
2018-03-26T08:59:32.985Z,58.93
2018-03-26T09:01:59.579Z,60.60
2018-03-26T09:04:27.480Z,76.00
2018-03-26T09:06:53.726Z,64.47
2018-03-26T09:09:20.763Z,66.77
2018-03-26T09:11:47.351Z,63.27
2018-03-26T09:14:13.655Z,72.33
2018-03-26T09:16:39.901Z,71.70
2018-03-26T09:19:06.883Z,72.63
2018-03-26T09:21:33.903Z,71.67
2018-03-26T09:24:00.548Z,70.40
2018-03-26T09:26:26.779Z,70.33
2018-03-26T09:28:53.069Z,65.23
2018-03-26T09:31:19.696Z,72.33
2018-03-26T09:33:46.960Z,75.57
2018-03-26T09:36:13.839Z,87.17
2018-03-26T09:38:40.875Z,72.80
2018-03-26T09:41:07.460Z,69.20
2018-03-26T09:43:34.095Z,74.47
2018-03-26T09:46:02.382Z,67.30
2018-03-26T09:48:29.371Z,70.23
2018-03-26T09:50:58.092Z,105.67
2018-03-26T09:53:25.890Z,69.43
2018-03-26T09:55:52.778Z,67.63
2018-03-26T09:58:19.769Z,73.10
2018-03-26T10:00:47.768Z,78.80
2018-03-26T10:03:14.775Z,76.93
2018-03-26T10:05:42.439Z,76.20
2018-03-26T10:08:09.482Z,69.20
2018-03-26T10:10:36.889Z,85.03
2018-03-26T10:13:05.037Z,81.93
2018-03-26T10:15:32.221Z,85.33
2018-03-26T10:17:58.540Z,80.87
2018-03-26T10:20:24.780Z,71.43
2018-03-26T10:22:51.488Z,61.30
2018-03-26T10:25:17.775Z,61.83
2018-03-26T10:27:44.968Z,63.40
2018-03-26T10:30:11.560Z,73.10
2018-03-26T10:32:37.854Z,66.77
2018-03-26T10:35:04.080Z,67.83
2018-03-26T10:37:30.340Z,70.03
2018-03-26T10:39:57.018Z,65.60
2018-03-26T10:42:24.032Z,69.20
2018-03-26T10:44:50.352Z,76.73
2018-03-26T10:47:16.623Z,70.20
2018-03-26T10:49:44.651Z,77.27
2018-03-26T10:52:11.497Z,71.10
2018-03-26T10:54:37.737Z,74.67
2018-03-26T10:57:04.936Z,79.83
2018-03-26T10:59:33.884Z,77.47
2018-03-26T11:02:00.244Z,71.97
2018-03-26T11:04:26.904Z,77.97
2018-03-26T11:06:53.169Z,81.40
2018-03-26T11:09:19.470Z,71.20
2018-03-26T11:11:47.492Z,73.97
2018-03-26T11:14:14.110Z,75.03
2018-03-26T11:16:40.662Z,70.67
2018-03-26T11:19:07.039Z,71.10
2018-03-26T11:21:34.106Z,62.57
2018-03-26T11:24:00.451Z,63.90
2018-03-26T11:26:26.828Z,69.60
2018-03-26T11:28:53.944Z,65.93
2018-03-26T11:31:20.216Z,63.13
2018-03-26T11:33:47.208Z,65.70
2018-03-26T11:36:14.465Z,63.47
2018-03-26T11:38:41.116Z,64.50
2018-03-26T11:41:08.334Z,61.30
2018-03-26T11:43:34.559Z,61.23
2018-03-26T11:46:00.822Z,66.03
2018-03-26T11:48:27.066Z,65.97
2018-03-26T11:50:54.950Z,63.23
2018-03-26T11:53:21.222Z,69.57
2018-03-26T11:55:48.303Z,58.37
2018-03-26T11:58:14.555Z,70.07
2018-03-26T12:00:41.739Z,68.03
2018-03-26T12:03:08.749Z,68.00
2018-03-26T12:05:35.174Z,83.13
2018-03-26T12:08:04.935Z,78.03
2018-03-26T12:10:32.405Z,65.10
2018-03-26T12:12:58.697Z,74.87
2018-03-26T12:15:25.056Z,69.80
2018-03-26T12:17:51.661Z,67.47
2018-03-26T12:20:30.509Z,70.63
2018-03-26T12:22:57.520Z,74.80
2018-03-26T12:25:24.738Z,86.63
2018-03-26T12:28:03.350Z,82.37
2018-03-26T12:30:30.265Z,76.47
2018-03-26T12:32:56.480Z,82.77
2018-03-26T12:35:35.441Z,90.17
2018-03-26T12:38:02.116Z,73.37
2018-03-26T12:40:41.969Z,84.00
2018-03-26T12:43:08.245Z,75.87
2018-03-26T12:45:47.939Z,77.37
2018-03-26T12:48:15.725Z,76.07
2018-03-26T12:50:54.070Z,77.53
2018-03-26T12:53:22.901Z,70.57
2018-03-26T12:55:50.464Z,77.90
2018-03-26T12:58:29.429Z,73.87
2018-03-26T13:01:08.933Z,68.37
2018-03-26T13:03:35.219Z,76.40
2018-03-26T13:06:02.202Z,74.00
2018-03-26T13:08:28.942Z,75.90
2018-03-26T13:10:56.470Z,76.73
2018-03-26T13:13:23.902Z,77.40
2018-03-26T13:15:50.216Z,79.90
2018-03-26T13:18:16.450Z,81.80
2018-03-26T13:20:42.780Z,80.93
2018-03-26T13:23:09.019Z,80.57
2018-03-26T13:25:36.138Z,80.00
2018-03-26T13:28:02.734Z,82.67
2018-03-26T13:30:29.418Z,80.43
2018-03-26T13:32:55.681Z,76.10
2018-03-26T13:35:21.931Z,83.33
2018-03-26T13:37:48.217Z,76.60
2018-03-26T13:40:14.564Z,67.07
2018-03-26T13:42:41.199Z,70.63
2018-03-26T13:45:08.561Z,60.07
2018-03-26T13:47:35.688Z,65.30
2018-03-26T13:50:02.595Z,64.63
2018-03-26T13:52:30.923Z,64.53
2018-03-26T13:54:57.543Z,60.73
2018-03-26T13:57:24.533Z,56.63
2018-03-26T13:59:51.535Z,65.40
2018-03-26T14:02:17.732Z,63.50
2018-03-26T14:04:44.795Z,60.33
2018-03-26T14:07:12.797Z,69.57
2018-03-26T14:09:51.213Z,64.37
2018-03-26T14:12:30.757Z,63.53
2018-03-26T14:24:43.988Z,72.93
2018-03-26T14:27:10.600Z,69.73
2018-03-26T14:29:36.869Z,74.47
2018-03-26T14:32:04.495Z,65.33
2018-03-26T14:34:30.785Z,76.00
2018-03-26T14:36:57.749Z,55.53
2018-03-26T14:39:24.955Z,46.30
2018-03-26T14:41:51.926Z,50.63
2018-03-26T14:44:19.927Z,65.93
2018-03-26T14:46:46.209Z,71.13
2018-03-26T14:49:13.196Z,68.63
2018-03-26T14:51:40.178Z,74.80
2018-03-26T14:54:06.410Z,74.87
2018-03-26T14:56:32.612Z,74.37
2018-03-26T14:59:00.523Z,69.83
2018-03-26T15:01:27.463Z,62.77
2018-03-26T15:03:59.612Z,69.00
2018-03-26T15:06:25.866Z,71.20
2018-03-26T15:08:52.580Z,57.47
2018-03-26T15:11:19.203Z,62.80
2018-03-26T15:13:45.432Z,65.50
2018-03-26T15:16:11.737Z,64.63
2018-03-26T15:18:38.914Z,72.07
2018-03-26T15:21:05.215Z,67.73
2018-03-26T15:23:31.812Z,77.67
2018-03-26T15:25:58.799Z,62.97
2018-03-26T15:28:26.754Z,86.17
2018-03-26T15:30:52.984Z,64.57
2018-03-26T15:33:19.612Z,65.87
2018-03-26T15:35:46.585Z,68.97
2018-03-26T15:38:12.882Z,66.77
2018-03-26T15:40:40.693Z,64.70
2018-03-26T15:43:07.754Z,62.17
2018-03-26T15:45:34.834Z,66.07
2018-03-26T15:48:01.055Z,61.50
2018-03-26T15:50:27.321Z,63.43
2018-03-26T15:52:53.937Z,59.33
2018-03-26T15:55:21.877Z,71.23
2018-03-26T15:57:48.878Z,80.00
2018-03-26T16:00:15.849Z,82.10
2018-03-26T16:02:48.130Z,69.50
2018-03-26T16:05:14.712Z,96.53
2018-03-26T16:07:40.922Z,73.87
2018-03-26T16:10:07.996Z,72.53
2018-03-26T16:12:34.209Z,60.10
2018-03-26T16:15:01.236Z,66.90
2018-03-26T16:17:28.258Z,80.27
2018-03-26T16:19:56.019Z,73.47
2018-03-26T16:22:22.235Z,73.67
2018-03-26T16:24:48.422Z,68.80
2018-03-26T16:27:15.441Z,63.27
2018-03-26T16:29:41.689Z,67.47
2018-03-26T16:32:07.917Z,63.50
2018-03-26T16:34:34.525Z,69.43
2018-03-26T16:37:01.956Z,64.23
2018-03-26T16:39:28.163Z,43.87
2018-03-26T16:42:07.415Z,28.00
2018-03-26T16:44:33.657Z,29.57
2018-03-26T16:46:59.911Z,26.23
2018-03-26T16:49:26.124Z,18.20
2018-03-26T16:51:52.428Z,15.43
2018-03-26T16:54:19.015Z,19.27
2018-03-26T16:56:45.203Z,14.50
2018-03-26T16:59:11.399Z,12.40
2018-03-26T17:01:37.660Z,16.13
2018-03-26T17:04:05.614Z,17.90
2018-03-26T17:06:32.192Z,13.30
2018-03-26T17:08:58.857Z,20.20
2018-03-26T17:11:25.998Z,11.53
2018-03-26T17:13:52.256Z,11.03
2018-03-26T17:16:19.269Z,10.00
2018-03-26T17:18:45.643Z,8.77
2018-03-26T17:21:13.190Z,9.77
2018-03-26T17:23:39.411Z,31.67
2018-03-26T17:26:12.376Z,10.70
2018-03-26T17:28:38.605Z,18.27
2018-03-26T17:31:05.290Z,16.50
2018-03-26T17:33:32.584Z,18.30
2018-03-26T17:35:59.491Z,30.53
2018-03-26T17:38:30.871Z,15.60
2018-03-26T17:41:00.819Z,24.70
2018-03-26T17:43:27.031Z,25.87
2018-03-26T17:45:55.153Z,14.03
2018-03-26T17:48:22.107Z,12.20
2018-03-26T17:50:49.064Z,16.40
2018-03-26T17:53:15.406Z,13.60
2018-03-26T17:55:41.634Z,10.93
2018-03-26T17:58:08.061Z,17.63
2018-03-26T18:00:34.975Z,11.07
2018-03-26T18:03:03.689Z,15.10
2018-03-26T18:05:30.686Z,13.97
2018-03-26T18:07:59.252Z,23.90
2018-03-26T18:10:26.668Z,11.00
2018-03-26T18:12:56.874Z,18.07
2018-03-26T18:15:23.479Z,18.90
2018-03-26T18:17:49.766Z,18.87
2018-03-26T18:20:16.748Z,16.33
2018-03-26T18:22:42.988Z,8.00
2018-03-26T18:25:10.665Z,11.57
2018-03-26T18:27:36.972Z,6.87
2018-03-26T18:30:04.082Z,11.27
2018-03-26T18:32:31.209Z,12.70
2018-03-26T18:35:00.592Z,21.33
2018-03-26T18:37:27.578Z,13.20
2018-03-26T18:39:55.455Z,15.73
2018-03-26T18:42:25.226Z,23.40
2018-03-26T18:44:51.829Z,14.97
2018-03-26T18:47:19.954Z,8.60
2018-03-26T18:49:46.381Z,11.90
2018-03-26T18:52:12.643Z,17.83
2018-03-26T18:54:40.399Z,12.73
2018-03-26T18:57:07.443Z,16.67
2018-03-26T18:59:34.837Z,11.30
2018-03-26T19:02:02.504Z,9.67
2018-03-26T19:04:33.074Z,9.63
2018-03-26T19:07:01.951Z,12.97
2018-03-26T19:09:34.602Z,10.23
2018-03-26T19:12:04.953Z,9.20
2018-03-26T19:14:33.207Z,14.33
2018-03-26T19:26:46.387Z,11.47
2018-03-26T19:29:13.481Z,12.30
2018-03-26T19:31:39.719Z,13.73
2018-03-26T19:34:09.209Z,13.03
2018-03-26T19:36:36.258Z,21.83
2018-03-26T19:39:02.514Z,17.50
2018-03-26T19:41:30.679Z,16.53
2018-03-26T19:43:57.235Z,14.00
2018-03-26T19:46:24.248Z,7.57
2018-03-26T19:48:51.173Z,11.57
2018-03-26T19:51:18.794Z,13.13
2018-03-26T19:53:45.751Z,12.47
2018-03-26T19:56:12.289Z,10.00
2018-03-26T19:58:40.016Z,11.50
2018-03-26T20:01:06.845Z,9.63
2018-03-26T20:03:33.207Z,23.87
2018-03-26T20:06:01.449Z,15.80
2018-03-26T20:08:30.332Z,11.17
2018-03-26T20:10:57.313Z,17.83
2018-03-26T20:13:24.823Z,18.83
2018-03-26T20:15:52.135Z,14.60
2018-03-26T20:18:19.082Z,15.30
2018-03-26T20:20:46.095Z,13.00
2018-03-26T20:36:12.714Z,9.27
2018-03-26T20:38:40.504Z,7.10
2018-03-26T20:41:07.129Z,10.40
2018-03-26T20:43:33.328Z,21.30
2018-03-26T20:45:59.632Z,10.87
2018-03-26T20:48:26.543Z,11.73
2018-03-26T20:50:52.723Z,11.07
2018-03-26T20:53:20.514Z,8.17
2018-03-26T20:55:47.768Z,13.30
2018-03-26T20:58:13.988Z,11.07
2018-03-26T21:00:43.005Z,11.70
2018-03-26T21:03:10.210Z,9.57
2018-03-26T21:05:37.951Z,9.17
2018-03-26T21:08:04.634Z,10.10
2018-03-26T21:10:32.828Z,9.53
2018-03-26T21:12:59.724Z,12.60
2018-03-26T21:15:27.682Z,21.30
2018-03-26T21:17:55.711Z,17.80
2018-03-26T21:20:22.263Z,13.13
2018-03-26T21:22:49.896Z,12.20
2018-03-26T21:25:16.169Z,19.17
2018-03-26T21:27:43.732Z,10.33
2018-03-26T21:30:09.933Z,10.60
2018-03-26T21:32:36.563Z,10.67
2018-03-26T21:35:03.600Z,17.20
2018-03-26T21:37:31.574Z,11.80
2018-03-26T21:39:58.531Z,12.40
2018-03-26T21:42:25.619Z,11.70
2018-03-26T21:44:54.195Z,10.10
2018-03-26T21:47:21.212Z,10.93
2018-03-26T21:49:48.991Z,11.60
2018-03-26T21:52:17.155Z,9.83
2018-03-26T21:54:44.540Z,6.93
2018-03-26T21:57:10.731Z,10.97
2018-03-26T21:59:37.438Z,13.67
2018-03-26T22:02:03.975Z,11.90
2018-03-26T22:04:31.141Z,14.13
2018-03-26T22:06:57.345Z,9.10
2018-03-26T22:09:24.011Z,10.83
2018-03-26T22:11:50.599Z,13.70
2018-03-26T22:14:18.361Z,10.53
2018-03-26T22:16:45.483Z,12.67
2018-03-26T22:19:12.775Z,9.93
2018-03-26T22:21:40.121Z,6.50
2018-03-26T22:24:07.945Z,19.10
2018-03-26T22:26:35.345Z,8.60
2018-03-26T22:29:01.544Z,9.50
2018-03-26T22:31:29.387Z,15.00
2018-03-26T22:33:57.101Z,10.50
2018-03-26T22:36:23.347Z,8.40
2018-03-26T22:51:55.337Z,14.23
2018-03-26T22:54:21.501Z,16.47
2018-03-26T22:56:50.191Z,12.60
2018-03-26T22:59:19.137Z,15.60
2018-03-26T23:01:46.138Z,16.93
2018-03-26T23:04:13.118Z,14.77
2018-03-26T23:06:41.403Z,9.23
2018-03-26T23:09:07.947Z,11.83
2018-03-26T23:11:35.457Z,15.13
2018-03-26T23:14:01.637Z,12.67
2018-03-26T23:16:28.319Z,11.87
2018-03-26T23:18:54.889Z,13.10
2018-03-26T23:21:22.765Z,10.80
2018-03-26T23:23:50.056Z,10.97
2018-03-26T23:26:17.061Z,9.33
2018-03-26T23:28:44.565Z,14.10
2018-03-26T23:31:12.127Z,11.07
2018-03-26T23:33:38.463Z,13.33
2018-03-26T23:36:05.471Z,10.87
2018-03-26T23:38:33.019Z,14.83
2018-03-26T23:41:01.256Z,10.53
2018-03-26T23:43:27.538Z,10.07
2018-03-26T23:45:54.676Z,13.93
2018-03-26T23:48:20.923Z,10.27
2018-03-26T23:50:47.132Z,14.53
2018-03-26T23:53:14.578Z,13.80
2018-03-26T23:55:42.500Z,15.23
2018-03-26T23:58:10.232Z,22.53
